createdAt,value
2018-10-09T00:01:24.809Z,83.20
2018-10-09T00:03:52.928Z,82.80
2018-10-09T00:06:21.019Z,82.80
2018-10-09T00:08:49.152Z,82.70
2018-10-09T00:11:17.288Z,82.80
2018-10-09T00:13:45.413Z,83.10
2018-10-09T00:16:13.523Z,84.50
2018-10-09T00:18:41.614Z,83.90
2018-10-09T00:21:09.691Z,83.70
2018-10-09T00:23:37.821Z,83.70
2018-10-09T00:26:05.955Z,83.50
2018-10-09T00:28:34.084Z,83.60
2018-10-09T00:31:02.241Z,83.60
2018-10-09T00:33:30.576Z,83.90
2018-10-09T00:35:58.687Z,83.50
2018-10-09T00:38:26.806Z,83.40
2018-10-09T00:40:54.928Z,83.40
2018-10-09T00:43:23.060Z,83.80
2018-10-09T00:45:51.204Z,83.90
2018-10-09T00:48:19.312Z,84.80
2018-10-09T00:50:47.492Z,85.90
2018-10-09T00:53:15.638Z,85.10
2018-10-09T00:55:43.761Z,84.90
2018-10-09T00:58:11.855Z,85.20
2018-10-09T01:00:40.021Z,84.90
2018-10-09T01:03:08.152Z,84.80
2018-10-09T01:05:36.250Z,85.10
2018-10-09T01:08:04.375Z,84.90
2018-10-09T01:10:32.467Z,84.30
2018-10-09T01:13:00.559Z,84.10
2018-10-09T01:15:28.792Z,84.50
2018-10-09T01:17:56.933Z,84.50
2018-10-09T01:20:31.154Z,84.50
2018-10-09T01:22:59.907Z,84.80
2018-10-09T01:25:27.978Z,85.10
2018-10-09T01:27:56.107Z,84.80
2018-10-09T01:30:24.277Z,84.90
2018-10-09T01:32:52.483Z,85.20
2018-10-09T01:35:20.599Z,85.30
2018-10-09T01:37:48.718Z,86.00
2018-10-09T01:40:16.875Z,86.30
2018-10-09T01:42:45.124Z,86.60
2018-10-09T01:45:13.302Z,86.60
2018-10-09T01:47:41.448Z,86.90
2018-10-09T01:50:09.592Z,87.10
2018-10-09T01:52:37.735Z,86.80
2018-10-09T01:55:06.715Z,86.90
2018-10-09T01:57:34.828Z,86.60
2018-10-09T02:00:03.028Z,86.70
2018-10-09T02:02:31.134Z,87.00
2018-10-09T02:04:59.290Z,87.10
2018-10-09T02:07:27.439Z,87.20
2018-10-09T02:09:55.665Z,87.10
2018-10-09T02:12:23.771Z,86.80
2018-10-09T02:14:51.895Z,87.20
2018-10-09T02:17:20.264Z,86.90
2018-10-09T02:19:48.388Z,86.30
2018-10-09T02:22:16.533Z,85.50
2018-10-09T02:24:44.704Z,85.80
2018-10-09T02:27:12.860Z,85.70
2018-10-09T02:29:40.967Z,86.00
2018-10-09T02:32:09.067Z,86.00
2018-10-09T02:34:37.233Z,85.70
2018-10-09T02:37:05.508Z,85.80
2018-10-09T02:39:33.614Z,86.20
2018-10-09T02:42:01.738Z,85.90
2018-10-09T02:44:29.871Z,85.60
2018-10-09T02:46:58.011Z,85.60
2018-10-09T02:49:26.105Z,85.80
2018-10-09T02:51:54.340Z,86.10
2018-10-09T02:54:22.509Z,86.50
2018-10-09T02:56:50.670Z,86.30
2018-10-09T02:59:18.792Z,86.40
2018-10-09T03:01:46.935Z,86.60
2018-10-09T03:04:15.076Z,86.00
2018-10-09T03:06:43.207Z,86.50
2018-10-09T03:09:11.345Z,85.90
2018-10-09T03:11:39.455Z,85.90
2018-10-09T03:14:07.593Z,85.90
2018-10-09T03:16:35.740Z,86.40
2018-10-09T03:19:03.902Z,86.40
2018-10-09T03:21:32.119Z,86.20
2018-10-09T03:24:00.283Z,86.10
2018-10-09T03:26:28.427Z,85.80
2018-10-09T03:28:56.567Z,85.90
2018-10-09T03:31:24.682Z,86.40
2018-10-09T03:33:52.882Z,86.40
2018-10-09T03:36:20.995Z,86.40
2018-10-09T03:38:49.172Z,86.20
2018-10-09T03:41:17.316Z,86.50
2018-10-09T03:43:45.418Z,86.40
2018-10-09T03:46:13.551Z,88.10
2018-10-09T03:48:41.688Z,86.80
2018-10-09T03:51:09.850Z,86.40
2018-10-09T03:53:38.000Z,86.10
2018-10-09T03:56:06.175Z,86.30
2018-10-09T03:58:34.316Z,86.50
2018-10-09T04:01:02.464Z,86.10
2018-10-09T04:03:30.585Z,86.00
2018-10-09T04:05:58.687Z,85.80
2018-10-09T04:08:26.795Z,86.50
2018-10-09T04:10:54.984Z,86.10
2018-10-09T04:13:23.121Z,86.40
2018-10-09T04:15:51.236Z,86.20
2018-10-09T04:18:19.413Z,86.20
2018-10-09T04:20:47.557Z,86.30
2018-10-09T04:23:15.684Z,86.60
2018-10-09T04:25:43.827Z,86.60
2018-10-09T04:28:11.998Z,86.20
2018-10-09T04:30:40.102Z,85.80
2018-10-09T04:33:08.242Z,85.80
2018-10-09T04:35:36.486Z,85.00
2018-10-09T04:38:04.628Z,85.90
2018-10-09T04:40:32.710Z,85.80
2018-10-09T04:43:00.800Z,85.80
2018-10-09T04:45:29.651Z,85.80
2018-10-09T04:48:00.488Z,85.80
2018-10-09T04:50:28.945Z,86.00
2018-10-09T04:52:57.118Z,86.20
2018-10-09T04:55:25.232Z,85.30
2018-10-09T05:00:27.876Z,86.20
2018-10-09T05:02:56.038Z,86.10
2018-10-09T05:05:24.158Z,85.80
2018-10-09T05:07:52.271Z,85.80
2018-10-09T05:10:20.379Z,85.60
2018-10-09T05:12:48.555Z,86.00
2018-10-09T05:15:16.677Z,86.10
2018-10-09T05:17:44.859Z,86.40
2018-10-09T05:20:12.903Z,86.20
2018-10-09T05:22:41.264Z,86.10
2018-10-09T05:25:09.441Z,86.20
2018-10-09T05:27:37.636Z,86.10
2018-10-09T05:30:05.772Z,86.20
2018-10-09T05:32:33.921Z,85.90
2018-10-09T05:35:02.053Z,85.50
2018-10-09T05:37:36.653Z,85.80
2018-10-09T05:40:04.835Z,85.90
2018-10-09T05:42:33.010Z,86.20
2018-10-09T05:45:01.117Z,86.60
2018-10-09T05:47:29.218Z,86.40
2018-10-09T05:49:57.342Z,86.50
2018-10-09T05:52:25.570Z,86.90
2018-10-09T05:54:53.816Z,87.60
2018-10-09T05:57:22.029Z,87.00
2018-10-09T05:59:50.192Z,87.00
2018-10-09T06:02:18.312Z,87.30
2018-10-09T06:04:46.432Z,86.90
2018-10-09T06:07:14.532Z,87.40
2018-10-09T06:09:42.668Z,87.50
2018-10-09T06:12:10.863Z,87.90
2018-10-09T06:14:39.003Z,86.60
2018-10-09T06:17:07.128Z,86.70
2018-10-09T06:19:35.397Z,86.00
2018-10-09T06:22:03.642Z,85.50
2018-10-09T06:24:31.682Z,84.90
2018-10-09T06:26:59.838Z,84.80
2018-10-09T06:29:27.955Z,84.00
2018-10-09T06:31:57.297Z,83.00
2018-10-09T06:34:25.487Z,81.70
2018-10-09T06:36:53.612Z,81.30
2018-10-09T06:39:21.835Z,81.10
2018-10-09T06:41:50.003Z,79.60
2018-10-09T06:44:18.183Z,77.30
2018-10-09T06:46:46.280Z,76.00
2018-10-09T06:49:14.394Z,74.70
2018-10-09T06:51:42.688Z,75.80
2018-10-09T06:54:10.989Z,73.30
2018-10-09T06:56:39.026Z,70.90
2018-10-09T06:59:07.164Z,70.30
2018-10-09T07:01:35.564Z,70.30
2018-10-09T07:04:03.744Z,69.50
2018-10-09T07:06:32.047Z,66.10
2018-10-09T07:09:00.206Z,65.80
2018-10-09T07:11:28.360Z,64.50
2018-10-09T07:13:56.527Z,65.20
2018-10-09T07:16:24.648Z,64.70
2018-10-09T07:18:52.810Z,65.30
2018-10-09T07:21:20.903Z,64.50
2018-10-09T07:23:49.032Z,62.70
2018-10-09T07:26:17.177Z,62.60
2018-10-09T07:28:45.291Z,61.60
2018-10-09T07:31:13.423Z,61.10
2018-10-09T07:33:41.609Z,59.80
2018-10-09T07:36:09.729Z,59.90
2018-10-09T07:38:37.877Z,60.40
2018-10-09T07:41:06.272Z,60.00
2018-10-09T07:43:34.399Z,62.10
2018-10-09T07:46:02.576Z,63.10
2018-10-09T07:48:30.739Z,64.40
2018-10-09T07:50:58.985Z,64.40
2018-10-09T07:53:27.164Z,65.30
2018-10-09T07:55:55.403Z,65.00
2018-10-09T07:58:23.665Z,62.10
2018-10-09T08:00:51.849Z,61.60
2018-10-09T08:03:20.061Z,60.50
2018-10-09T08:05:48.226Z,61.00
2018-10-09T08:08:16.543Z,58.70
2018-10-09T08:10:44.739Z,59.20
2018-10-09T08:13:12.867Z,54.10
2018-10-09T08:15:40.964Z,51.60
2018-10-09T08:18:09.071Z,44.10
2018-10-09T08:20:37.197Z,38.50
2018-10-09T08:23:05.275Z,38.20
2018-10-09T08:25:33.484Z,33.60
2018-10-09T08:28:01.573Z,33.90
2018-10-09T08:30:29.697Z,34.40
2018-10-09T08:32:57.828Z,33.30
2018-10-09T08:35:25.974Z,28.20
2018-10-09T08:37:54.071Z,25.30
2018-10-09T08:40:22.321Z,24.70
2018-10-09T08:42:50.333Z,23.30
2018-10-09T08:45:18.440Z,23.30
2018-10-09T08:47:46.656Z,21.70
2018-10-09T08:50:14.816Z,18.90
2018-10-09T08:52:43.063Z,17.70
2018-10-09T08:55:11.179Z,16.90
2018-10-09T08:57:39.281Z,17.20
2018-10-09T09:00:08.229Z,17.70
2018-10-09T09:02:36.320Z,16.80
2018-10-09T09:05:04.744Z,17.20
2018-10-09T09:07:32.852Z,17.70
2018-10-09T09:10:00.940Z,18.60
2018-10-09T09:12:29.069Z,16.30
2018-10-09T09:14:57.160Z,16.20
2018-10-09T09:17:25.264Z,15.70
2018-10-09T09:19:53.409Z,16.50
2018-10-09T09:22:21.615Z,17.10
2018-10-09T09:24:49.869Z,16.70
2018-10-09T09:27:18.221Z,16.60
2018-10-09T09:29:46.248Z,16.60
2018-10-09T09:32:14.412Z,17.00
2018-10-09T09:34:42.526Z,16.10
2018-10-09T09:37:10.639Z,15.60
2018-10-09T09:39:38.739Z,14.70
2018-10-09T09:42:06.854Z,13.30
2018-10-09T09:44:34.958Z,12.80
2018-10-09T09:47:03.052Z,12.70
2018-10-09T09:49:31.193Z,13.20
2018-10-09T09:51:59.394Z,14.00
2018-10-09T09:54:27.464Z,14.90
2018-10-09T09:56:55.588Z,16.50
2018-10-09T09:59:23.853Z,16.10
2018-10-09T10:01:51.955Z,16.10
2018-10-09T10:04:20.044Z,16.90
2018-10-09T10:06:48.164Z,16.70
2018-10-09T10:09:16.288Z,17.10
2018-10-09T10:11:44.325Z,17.70
2018-10-09T10:14:12.457Z,17.80
2018-10-09T10:16:40.565Z,17.60
2018-10-09T10:19:08.711Z,17.20
2018-10-09T10:21:36.824Z,17.20
2018-10-09T10:24:04.928Z,15.80
2018-10-09T10:26:33.035Z,16.60
2018-10-09T10:29:01.174Z,17.40
2018-10-09T10:31:29.260Z,17.20
2018-10-09T10:33:57.398Z,17.90
2018-10-09T10:36:25.541Z,17.10
2018-10-09T10:38:53.679Z,17.70
2018-10-09T10:41:21.826Z,17.90
2018-10-09T10:43:49.913Z,17.80
2018-10-09T10:46:18.042Z,17.60
2018-10-09T10:48:58.408Z,17.00
2018-10-09T10:51:26.659Z,17.90
2018-10-09T10:53:54.896Z,17.90
2018-10-09T10:56:22.980Z,19.00
2018-10-09T10:58:51.081Z,20.10
2018-10-09T11:01:19.212Z,18.80
2018-10-09T11:03:47.277Z,19.00
2018-10-09T11:06:15.598Z,18.10
2018-10-09T11:08:43.685Z,18.50
2018-10-09T11:11:11.803Z,18.00
2018-10-09T11:13:39.940Z,18.10
2018-10-09T11:16:08.338Z,18.90
2018-10-09T11:18:36.452Z,18.60
2018-10-09T11:21:04.631Z,18.90
2018-10-09T11:23:32.787Z,18.60
2018-10-09T11:26:00.885Z,17.90
2018-10-09T11:28:29.022Z,18.30
2018-10-09T11:30:57.132Z,18.40
2018-10-09T11:33:25.217Z,18.40
2018-10-09T11:35:53.342Z,18.90
2018-10-09T11:38:21.420Z,18.30
2018-10-09T11:40:49.545Z,18.70
2018-10-09T11:43:17.636Z,17.90
2018-10-09T11:45:45.765Z,18.60
2018-10-09T11:48:13.872Z,19.00
2018-10-09T11:50:41.968Z,18.60
2018-10-09T11:53:10.093Z,17.50
2018-10-09T11:55:38.200Z,18.30
2018-10-09T11:58:06.307Z,18.00
2018-10-09T12:00:37.328Z,17.60
2018-10-09T12:03:06.064Z,17.50
2018-10-09T12:05:34.331Z,17.80
2018-10-09T12:08:02.531Z,16.70
2018-10-09T12:10:30.813Z,17.50
2018-10-09T12:12:58.950Z,17.80
2018-10-09T12:15:27.068Z,17.10
2018-10-09T12:17:55.192Z,16.80
2018-10-09T12:20:23.284Z,16.10
2018-10-09T12:22:51.679Z,16.30
2018-10-09T12:25:19.778Z,15.90
2018-10-09T12:27:47.893Z,16.40
2018-10-09T12:30:16.202Z,15.30
2018-10-09T12:32:44.312Z,14.60
2018-10-09T12:35:12.441Z,14.30
2018-10-09T12:37:40.585Z,14.50
2018-10-09T12:40:08.690Z,14.00
2018-10-09T12:42:36.829Z,14.90
2018-10-09T12:45:04.960Z,15.50
2018-10-09T12:47:33.062Z,15.00
2018-10-09T12:50:01.209Z,14.50
2018-10-09T12:52:29.309Z,14.10
2018-10-09T12:54:57.621Z,14.30
2018-10-09T12:57:26.106Z,14.50
2018-10-09T12:59:54.262Z,15.00
2018-10-09T13:02:22.385Z,15.00
2018-10-09T13:04:50.841Z,13.30
2018-10-09T13:07:19.073Z,14.10
2018-10-09T13:09:47.216Z,14.10
2018-10-09T13:12:15.473Z,13.50
2018-10-09T13:14:43.583Z,12.50
2018-10-09T13:17:11.735Z,11.70
2018-10-09T13:19:39.805Z,9.30
2018-10-09T13:22:08.318Z,7.00
2018-10-09T13:24:36.242Z,6.00
2018-10-09T13:27:04.444Z,5.10
2018-10-09T13:29:32.624Z,3.40
2018-10-09T13:32:00.771Z,3.00
2018-10-09T13:34:28.952Z,1.90
2018-10-09T13:36:57.149Z,1.00
2018-10-09T13:39:25.301Z,1.00
2018-10-09T13:41:53.631Z,1.00
2018-10-09T13:44:21.877Z,1.00
2018-10-09T13:46:50.328Z,1.10
2018-10-09T13:49:18.337Z,1.00
2018-10-09T13:51:46.468Z,1.00
2018-10-09T13:54:14.817Z,1.00
2018-10-09T13:56:42.904Z,2.10
2018-10-09T13:59:11.100Z,3.10
2018-10-09T14:01:39.206Z,4.30
2018-10-09T14:04:07.685Z,4.50
2018-10-09T14:06:36.276Z,6.20
2018-10-09T14:09:07.478Z,5.80
2018-10-09T14:11:35.745Z,6.50
2018-10-09T14:14:03.876Z,7.20
2018-10-09T14:16:32.070Z,7.00
2018-10-09T14:19:00.198Z,8.00
2018-10-09T14:21:28.345Z,8.70
2018-10-09T14:23:56.573Z,9.70
2018-10-09T14:26:24.672Z,9.70
2018-10-09T14:28:52.913Z,10.10
2018-10-09T14:31:21.020Z,10.00
2018-10-09T14:33:49.103Z,10.10
2018-10-09T14:36:17.308Z,10.50
2018-10-09T14:38:45.506Z,10.70
2018-10-09T14:41:13.680Z,11.40
2018-10-09T14:43:42.006Z,12.20
2018-10-09T14:46:10.633Z,12.90
2018-10-09T14:48:38.963Z,13.10
2018-10-09T14:51:07.086Z,12.90
2018-10-09T14:53:35.659Z,13.50
2018-10-09T14:56:03.972Z,13.60
2018-10-09T14:58:32.120Z,14.00
2018-10-09T15:03:34.937Z,15.00
2018-10-09T15:06:03.172Z,15.40
2018-10-09T15:08:31.285Z,14.90
2018-10-09T15:10:59.486Z,15.20
2018-10-09T15:13:27.999Z,15.00
2018-10-09T15:15:56.059Z,16.70
2018-10-09T15:18:24.813Z,16.00
2018-10-09T15:20:53.051Z,16.50
2018-10-09T15:23:21.159Z,18.90
2018-10-09T15:25:49.285Z,17.70
2018-10-09T15:28:17.384Z,17.70
2018-10-09T15:30:45.636Z,21.00
2018-10-09T15:33:13.932Z,18.40
2018-10-09T15:35:42.053Z,18.40
2018-10-09T15:38:10.165Z,18.10
2018-10-09T15:40:38.269Z,18.20
2018-10-09T15:43:06.637Z,17.80
2018-10-09T15:45:35.094Z,18.10
2018-10-09T15:48:03.265Z,18.10
2018-10-09T15:50:31.440Z,18.70
2018-10-09T15:53:00.205Z,18.40
2018-10-09T15:55:28.463Z,17.90
2018-10-09T15:57:56.646Z,18.20
2018-10-09T16:00:24.817Z,18.40
2018-10-09T16:02:53.022Z,18.40
2018-10-09T16:05:21.156Z,19.80
2018-10-09T16:07:49.302Z,20.60
2018-10-09T16:10:17.421Z,20.00
2018-10-09T16:12:45.548Z,19.20
2018-10-09T16:15:13.775Z,20.20
2018-10-09T16:17:42.028Z,19.90
2018-10-09T16:20:10.349Z,22.00
2018-10-09T16:22:38.604Z,23.30
2018-10-09T16:25:06.776Z,23.60
2018-10-09T16:30:10.232Z,26.40
2018-10-09T16:32:38.627Z,26.30
2018-10-09T16:35:06.785Z,28.40
2018-10-09T16:37:34.938Z,29.50
2018-10-09T16:40:03.616Z,30.10
2018-10-09T16:42:32.029Z,32.10
2018-10-09T16:45:00.198Z,33.20
2018-10-09T16:47:28.489Z,34.40
2018-10-09T16:49:56.560Z,35.40
2018-10-09T16:52:24.746Z,36.80
2018-10-09T16:54:53.211Z,39.20
2018-10-09T16:57:22.099Z,40.70
2018-10-09T16:59:50.871Z,42.30
2018-10-09T17:02:19.127Z,43.20
2018-10-09T17:04:47.357Z,44.50
2018-10-09T17:07:16.251Z,46.20
2018-10-09T17:09:44.775Z,48.60
2018-10-09T17:12:12.936Z,51.60
2018-10-09T17:14:41.344Z,52.20
2018-10-09T17:17:09.593Z,54.00
2018-10-09T17:19:37.776Z,54.90
2018-10-09T17:22:05.938Z,55.70
2018-10-09T17:24:34.016Z,56.60
2018-10-09T17:27:02.159Z,58.20
2018-10-09T17:29:30.436Z,58.90
2018-10-09T17:31:58.886Z,59.50
2018-10-09T17:34:27.150Z,60.30
2018-10-09T17:36:55.286Z,60.30
2018-10-09T17:39:23.486Z,61.60
2018-10-09T17:41:51.596Z,62.60
2018-10-09T17:44:19.736Z,63.20
2018-10-09T17:46:48.824Z,63.90
2018-10-09T17:49:17.194Z,64.70
2018-10-09T17:51:45.323Z,64.80
2018-10-09T17:54:13.498Z,64.70
2018-10-09T17:56:41.640Z,64.80
2018-10-09T17:59:09.946Z,65.00
2018-10-09T18:01:38.133Z,66.60
2018-10-09T18:04:06.410Z,67.30
2018-10-09T18:06:34.569Z,67.50
2018-10-09T18:09:02.744Z,68.20
2018-10-09T18:11:30.845Z,68.00
2018-10-09T18:13:59.165Z,68.40
2018-10-09T18:16:27.499Z,68.80
2018-10-09T18:18:55.667Z,69.60
2018-10-09T18:21:23.841Z,70.10
2018-10-09T18:25:24.396Z,69.50
2018-10-09T18:27:52.689Z,70.70
2018-10-09T18:30:23.904Z,70.20
2018-10-09T18:32:52.599Z,70.60
2018-10-09T18:35:20.981Z,71.10
2018-10-09T18:37:49.167Z,71.60
2018-10-09T18:40:17.786Z,71.70
2018-10-09T18:42:46.342Z,72.20
2018-10-09T18:45:18.611Z,72.50
2018-10-09T18:47:51.660Z,72.00
2018-10-09T18:50:19.855Z,73.10
2018-10-09T18:52:49.545Z,74.00
2018-10-09T18:55:19.604Z,74.00
2018-10-09T18:57:50.522Z,74.40
2018-10-09T19:00:19.467Z,74.60
2018-10-09T19:02:47.680Z,74.20
2018-10-09T19:05:15.845Z,74.70
2018-10-09T19:07:43.985Z,75.20
2018-10-09T19:10:12.131Z,75.60
2018-10-09T19:12:40.285Z,76.10
2018-10-09T19:15:08.421Z,76.40
2018-10-09T19:17:36.565Z,76.80
2018-10-09T19:20:04.820Z,76.80
2018-10-09T19:22:32.985Z,77.30
2018-10-09T19:25:01.141Z,77.30
2018-10-09T19:27:29.245Z,78.20
2018-10-09T19:29:57.353Z,77.90
2018-10-09T19:32:25.992Z,78.00
2018-10-09T19:34:54.099Z,77.80
2018-10-09T19:37:22.586Z,77.70
2018-10-09T19:39:50.884Z,78.00
2018-10-09T19:42:19.179Z,78.10
2018-10-09T19:44:47.349Z,78.60
2018-10-09T19:47:15.649Z,78.70
2018-10-09T19:49:43.867Z,78.90
2018-10-09T19:52:12.207Z,79.20
2018-10-09T19:54:40.421Z,79.30
2018-10-09T19:57:08.597Z,79.40
2018-10-09T19:59:36.799Z,79.70
2018-10-09T20:02:04.980Z,79.70
2018-10-09T20:04:33.149Z,80.20
2018-10-09T20:07:01.334Z,80.20
2018-10-09T20:09:29.545Z,80.60
2018-10-09T20:11:57.700Z,81.00
2018-10-09T20:14:25.910Z,80.70
2018-10-09T20:16:54.057Z,80.90
2018-10-09T20:19:22.276Z,80.30
2018-10-09T20:21:50.459Z,80.00
2018-10-09T20:24:18.692Z,80.30
2018-10-09T20:26:46.901Z,80.50
2018-10-09T20:29:15.042Z,80.30
2018-10-09T20:31:43.196Z,80.30
2018-10-09T20:34:11.359Z,80.50
2018-10-09T20:36:39.522Z,80.60
2018-10-09T20:39:07.721Z,80.10
2018-10-09T20:41:35.856Z,80.10
2018-10-09T20:44:04.080Z,80.30
2018-10-09T20:46:32.309Z,80.40
2018-10-09T20:49:00.505Z,80.50
2018-10-09T20:51:28.680Z,80.60
2018-10-09T20:53:56.863Z,80.80
2018-10-09T20:56:25.065Z,80.90
2018-10-09T20:58:53.212Z,81.30
2018-10-09T21:01:21.354Z,81.00
2018-10-09T21:03:49.656Z,80.90
2018-10-09T21:06:17.999Z,81.30
2018-10-09T21:08:46.325Z,81.30
2018-10-09T21:11:14.530Z,81.10
2018-10-09T21:13:42.740Z,81.10
2018-10-09T21:16:11.425Z,81.60
2018-10-09T21:18:39.949Z,81.50
2018-10-09T21:21:08.191Z,81.70
2018-10-09T21:23:36.459Z,81.90
2018-10-09T21:26:04.767Z,82.20
2018-10-09T21:28:33.087Z,82.20
2018-10-09T21:31:01.478Z,82.50
2018-10-09T21:33:29.748Z,83.10
2018-10-09T21:35:57.872Z,82.50
2018-10-09T21:38:26.089Z,83.60
2018-10-09T21:40:54.339Z,82.70
2018-10-09T21:43:22.523Z,83.00
2018-10-09T21:45:50.904Z,83.10
2018-10-09T21:48:19.147Z,82.80
2018-10-09T21:50:47.309Z,82.90
2018-10-09T21:53:15.617Z,83.00
2018-10-09T21:55:43.763Z,83.10
2018-10-09T21:58:11.994Z,83.30
2018-10-09T22:00:45.881Z,83.20
2018-10-09T22:03:14.160Z,83.40
2018-10-09T22:05:42.283Z,83.30
2018-10-09T22:08:10.600Z,83.20
2018-10-09T22:10:38.962Z,83.20
2018-10-09T22:13:07.870Z,84.20
2018-10-09T22:15:36.216Z,83.40
2018-10-09T22:18:04.620Z,83.40
2018-10-09T22:20:32.741Z,83.90
2018-10-09T22:23:00.920Z,84.10
2018-10-09T22:25:29.108Z,83.70
2018-10-09T22:27:57.222Z,82.60
2018-10-09T22:30:25.320Z,83.50
2018-10-09T22:32:53.476Z,83.40
2018-10-09T22:35:21.632Z,83.60
2018-10-09T22:37:49.786Z,83.90
2018-10-09T22:40:17.887Z,84.10
2018-10-09T22:42:46.644Z,84.00
2018-10-09T22:45:16.418Z,84.20
2018-10-09T22:47:45.209Z,84.20
2018-10-09T22:50:14.920Z,84.20
2018-10-09T22:52:43.453Z,84.50
2018-10-09T22:55:12.913Z,84.60
2018-10-09T22:57:41.048Z,84.60
2018-10-09T23:00:09.161Z,84.80
2018-10-09T23:02:37.300Z,84.60
2018-10-09T23:05:05.507Z,84.80
2018-10-09T23:07:33.645Z,84.70
2018-10-09T23:10:04.274Z,85.00
2018-10-09T23:12:32.407Z,84.90
2018-10-09T23:15:00.499Z,84.90
2018-10-09T23:17:28.616Z,84.80
2018-10-09T23:19:56.764Z,84.80
2018-10-09T23:22:24.901Z,84.80
2018-10-09T23:24:53.081Z,84.90
2018-10-09T23:27:21.225Z,85.80
2018-10-09T23:29:49.397Z,85.10
2018-10-09T23:32:17.533Z,85.00
2018-10-09T23:34:45.673Z,85.20
2018-10-09T23:37:13.808Z,85.20
2018-10-09T23:39:48.413Z,85.30
2018-10-09T23:42:16.516Z,86.20
2018-10-09T23:44:44.679Z,84.60
2018-10-09T23:47:12.824Z,84.50
2018-10-09T23:49:41.233Z,84.10
2018-10-09T23:52:09.335Z,84.20
2018-10-09T23:54:37.445Z,84.40
2018-10-09T23:57:05.590Z,84.80
2018-10-09T23:59:33.777Z,84.60
